Time;durP1;ratioP1;P1;durP2;ratioP2;P2;SDS_P1;SDS_P2;PMS_P1;PMS_P2;Temp;Humidity;BMP_temperature;BMP_pressure;BME280_temperature;BME280_humidity;BME280_pressure;Samples;Min_cycle;Max_cycle;Signal;HPM_P1;HPM_P2
2023/10/06 00:00:50;;;;;;;8.57;3.30;;;7.80;99.90;;;;;;5007379;28;20176;-68
2023/10/06 00:03:16;;;;;;;19.57;4.00;;;7.80;99.90;;;;;;5007122;28;20212;-68
2023/10/06 00:05:42;;;;;;;9.27;4.00;;;7.70;99.90;;;;;;5008585;28;20555;-68
2023/10/06 00:08:11;;;;;;;7.83;3.30;;;7.70;99.90;;;;;;4999755;28;20240;-69
2023/10/06 00:10:44;;;;;;;7.97;3.30;;;7.70;99.90;;;;;;5009150;28;20180;-69
2023/10/06 00:13:12;;;;;;;9.00;3.57;;;7.60;99.90;;;;;;5011369;28;20200;-69
2023/10/06 00:15:43;;;;;;;6.73;3.40;;;7.60;99.90;;;;;;4998593;28;20200;-69
2023/10/06 00:18:16;;;;;;;9.70;4.00;;;7.60;99.90;;;;;;5000353;28;20678;-69
2023/10/06 00:20:56;;;;;;;6.97;3.10;;;7.50;99.90;;;;;;5002256;28;20185;-69
2023/10/06 00:23:22;;;;;;;9.13;3.47;;;7.50;99.90;;;;;;5011123;28;20318;-69
2023/10/06 00:25:54;;;;;;;5.17;3.10;;;7.50;99.90;;;;;;5007552;28;20181;-69
2023/10/06 00:28:27;;;;;;;8.53;3.07;;;7.50;99.90;;;;;;4991312;28;20188;-69
2023/10/06 00:30:57;;;;;;;8.53;3.73;;;7.40;99.90;;;;;;4995730;28;20226;-69
2023/10/06 00:33:32;;;;;;;6.73;3.20;;;7.40;99.90;;;;;;4994673;28;20204;-69
2023/10/06 00:35:58;;;;;;;5.33;3.17;;;7.40;99.90;;;;;;4992878;28;20655;-69
2023/10/06 00:38:24;;;;;;;8.30;3.03;;;7.40;99.90;;;;;;5007256;28;20200;-69
2023/10/06 00:40:53;;;;;;;6.23;3.50;;;7.30;99.90;;;;;;5010263;28;20184;-69
2023/10/06 00:43:36;;;;;;;6.27;3.03;;;7.30;99.90;;;;;;4995058;28;20256;-69
2023/10/06 00:46:08;;;;;;;7.10;3.23;;;7.30;99.90;;;;;;5004742;28;20199;-69
2023/10/06 00:48:45;;;;;;;7.23;3.67;;;7.30;99.90;;;;;;5000180;28;20727;-69
2023/10/06 00:51:22;;;;;;;5.50;3.50;;;7.40;99.90;;;;;;4997694;28;20298;-69
2023/10/06 00:53:56;;;;;;;7.30;3.07;;;7.30;99.90;;;;;;5010369;28;20204;-69
2023/10/06 00:56:25;;;;;;;7.13;3.60;;;7.30;99.90;;;;;;5010692;28;20172;-69
2023/10/06 00:58:52;;;;;;;5.47;3.07;;;7.30;99.90;;;;;;5001635;28;20208;-69
2023/10/06 01:01:18;;;;;;;8.53;3.40;;;7.30;99.90;;;;;;5002485;28;20188;-69
2023/10/06 01:03:48;;;;;;;9.43;3.23;;;7.20;99.90;;;;;;5010093;28;20216;-69
2023/10/06 01:06:15;;;;;;;8.67;3.80;;;7.20;99.90;;;;;;5003679;28;20205;-69
2023/10/06 01:08:52;;;;;;;10.43;3.60;;;7.20;99.90;;;;;;4990107;28;20280;-69
2023/10/06 01:11:20;;;;;;;8.27;3.70;;;7.20;99.90;;;;;;4990952;28;20185;-69
2023/10/06 01:13:56;;;;;;;8.60;3.60;;;7.30;99.90;;;;;;4993633;28;20271;-69
2023/10/06 01:16:34;;;;;;;14.23;4.20;;;7.30;99.90;;;;;;5002418;28;20596;-68
2023/10/06 01:21:52;;;;;;;6.33;3.77;;;7.30;99.90;;;;;;5007045;28;20196;-69
2023/10/06 01:24:24;;;;;;;11.43;4.17;;;7.40;99.90;;;;;;4998173;28;20196;-69
2023/10/06 01:26:53;;;;;;;7.43;3.80;;;7.40;99.90;;;;;;5010302;28;20184;-68
2023/10/06 01:29:22;;;;;;;11.47;4.23;;;7.50;99.90;;;;;;5010916;28;20267;-69
2023/10/06 01:31:50;;;;;;;11.83;4.90;;;7.50;99.90;;;;;;5014122;28;20183;-68
2023/10/06 01:34:15;;;;;;;10.83;4.70;;;7.60;99.90;;;;;;5014241;28;20200;-68
2023/10/06 01:36:45;;;;;;;11.60;5.33;;;7.70;99.90;;;;;;5005854;28;20848;-69
2023/10/06 01:39:23;;;;;;;13.30;5.87;;;7.70;99.90;;;;;;5013409;28;20644;-69
2023/10/06 01:41:49;;;;;;;11.63;5.43;;;7.70;99.90;;;;;;4998002;28;20180;-69
2023/10/06 01:44:18;;;;;;;12.87;5.20;;;7.70;99.90;;;;;;4998799;28;20211;-69
2023/10/06 01:46:53;;;;;;;12.97;5.00;;;7.80;99.90;;;;;;5005072;28;20615;-69
2023/10/06 01:49:21;;;;;;;10.03;5.13;;;7.80;99.90;;;;;;5013436;28;20309;-69
2023/10/06 01:51:50;;;;;;;11.40;5.37;;;7.80;99.90;;;;;;5005670;28;20583;-69
2023/10/06 01:54:17;;;;;;;13.20;5.40;;;7.90;99.90;;;;;;5013901;28;20219;-69
2023/10/06 01:56:42;;;;;;;12.13;5.87;;;7.90;99.90;;;;;;5013642;28;20191;-69
2023/10/06 01:59:14;;;;;;;10.07;4.90;;;7.90;99.90;;;;;;5006954;28;20208;-69
2023/10/06 02:01:41;;;;;;;9.73;5.50;;;7.90;99.90;;;;;;5004438;28;20204;-69
2023/10/06 02:04:11;;;;;;;12.47;5.20;;;7.90;99.90;;;;;;5007797;28;20634;-69
2023/10/06 02:06:51;;;;;;;8.63;4.43;;;8.00;99.90;;;;;;5002027;28;20224;-69
2023/10/06 02:09:18;;;;;;;8.70;4.10;;;7.90;99.90;;;;;;5008623;28;20180;-69
2023/10/06 02:11:44;;;;;;;7.87;4.20;;;8.00;99.90;;;;;;5008078;28;20193;-69
2023/10/06 02:14:11;;;;;;;6.60;4.10;;;8.00;99.90;;;;;;4996786;28;20614;-69
2023/10/06 02:16:39;;;;;;;6.70;3.73;;;8.00;99.90;;;;;;5002129;28;20212;-69
2023/10/06 02:19:12;;;;;;;12.10;4.60;;;8.00;99.90;;;;;;4999600;28;20219;-69
2023/10/06 02:21:42;;;;;;;10.43;3.73;;;8.00;99.90;;;;;;5003616;28;20663;-69
2023/10/06 02:24:08;;;;;;;15.63;3.97;;;8.10;99.90;;;;;;4994610;28;20197;-69
2023/10/06 02:26:37;;;;;;;8.03;3.60;;;8.00;99.90;;;;;;5003199;28;20214;-69
2023/10/06 02:29:24;;;;;;;8.07;3.60;;;8.00;99.90;;;;;;5002141;28;20181;-69
2023/10/06 02:31:50;;;;;;;6.83;3.90;;;8.00;99.90;;;;;;4998924;28;20185;-69
2023/10/06 02:34:29;;;;;;;8.03;4.30;;;8.00;99.90;;;;;;5015068;28;20201;-69
2023/10/06 02:37:00;;;;;;;10.67;4.47;;;8.00;99.90;;;;;;4993514;28;20200;-69
2023/10/06 02:39:33;;;;;;;8.47;4.10;;;8.00;99.90;;;;;;5000360;28;20196;-69
2023/10/06 02:42:08;;;;;;;7.27;4.17;;;8.00;99.90;;;;;;5008279;28;20177;-69
2023/10/06 02:44:38;;;;;;;9.50;4.20;;;8.00;99.90;;;;;;4993071;28;20688;-69
2023/10/06 02:47:14;;;;;;;6.33;3.50;;;8.00;99.90;;;;;;5006728;28;20203;-69
2023/10/06 02:49:49;;;;;;;8.27;4.43;;;8.00;99.90;;;;;;5008269;28;20180;-69
2023/10/06 02:52:29;;;;;;;14.60;4.03;;;8.00;99.90;;;;;;5008183;28;20191;-69
2023/10/06 02:55:18;;;;;;;11.43;4.30;;;8.00;99.90;;;;;;4994107;28;20597;-69
2023/10/06 02:57:50;;;;;;;15.33;4.40;;;8.00;99.90;;;;;;5011824;28;20264;-68
2023/10/06 03:02:56;;;;;;;6.37;3.90;;;8.00;99.90;;;;;;5012543;28;20254;-69
2023/10/06 03:05:32;;;;;;;11.40;4.30;;;7.90;99.90;;;;;;5019655;28;20216;-69
2023/10/06 03:08:00;;;;;;;13.40;5.07;;;7.90;99.90;;;;;;4990565;28;20234;-68
2023/10/06 03:10:27;;;;;;;7.63;4.20;;;7.80;99.90;;;;;;5003610;28;20188;-68
2023/10/06 03:12:57;;;;;;;6.33;4.03;;;7.90;99.90;;;;;;5008610;28;20689;-68
2023/10/06 03:15:33;;;;;;;7.77;3.77;;;7.80;99.90;;;;;;5008606;28;20180;-68
2023/10/06 03:17:59;;;;;;;10.73;3.87;;;7.80;99.90;;;;;;4993900;28;20180;-68
2023/10/06 03:21:13;;;;;;;15.40;4.77;;;7.70;99.90;;;;;;5008001;28;20224;-68
2023/10/06 03:23:29;;;;;;;11.17;4.80;;;7.70;99.90;;;;;;4996095;28;20238;-68
2023/10/06 03:25:56;;;;;;;13.63;4.70;;;7.70;99.90;;;;;;5004059;28;20242;-68
2023/10/06 03:33:44;;;;;;;9.97;4.40;;;7.60;99.90;;;;;;5001241;28;20838;-68
2023/10/06 03:36:10;;;;;;;11.43;4.63;;;7.60;99.90;;;;;;5015600;28;20263;-68
2023/10/06 03:38:36;;;;;;;9.87;4.97;;;7.60;99.90;;;;;;5009083;28;20207;-68
2023/10/06 03:41:13;;;;;;;10.67;4.77;;;7.60;99.90;;;;;;5011937;28;20629;-68
2023/10/06 03:43:50;;;;;;;12.33;4.70;;;7.70;99.90;;;;;;5011611;28;20270;-68
2023/10/06 03:46:19;;;;;;;8.37;4.37;;;7.70;99.90;;;;;;5003773;28;20184;-68
2023/10/06 03:48:48;;;;;;;11.60;4.27;;;7.80;99.90;;;;;;4998661;28;20220;-68
2023/10/06 03:51:20;;;;;;;8.17;4.03;;;7.80;99.90;;;;;;4998264;28;20651;-69
2023/10/06 03:53:48;;;;;;;8.80;4.47;;;7.80;99.90;;;;;;5011424;28;20200;-69
2023/10/06 03:56:17;;;;;;;10.13;3.87;;;7.80;99.90;;;;;;5011799;28;20192;-69
2023/10/06 03:58:44;;;;;;;7.93;4.33;;;7.80;99.90;;;;;;5008179;28;20250;-68
2023/10/06 04:01:19;;;;;;;10.80;4.67;;;7.90;99.90;;;;;;4985988;28;20186;-69
2023/10/06 04:03:45;;;;;;;6.47;3.67;;;7.90;99.90;;;;;;4999022;28;20270;-69
2023/10/06 04:06:15;;;;;;;11.27;4.80;;;7.90;99.90;;;;;;5000154;28;20181;-69
2023/10/06 04:08:44;;;;;;;11.03;4.33;;;7.90;99.90;;;;;;4999283;28;20204;-69
2023/10/06 04:11:14;;;;;;;8.97;4.30;;;7.90;99.90;;;;;;4999953;28;20249;-69
2023/10/06 04:13:40;;;;;;;8.93;3.80;;;7.90;99.90;;;;;;4999583;28;20284;-69
2023/10/06 04:16:06;;;;;;;9.77;4.40;;;8.00;99.90;;;;;;4992019;28;20648;-69
2023/10/06 04:18:32;;;;;;;19.17;4.70;;;7.90;99.90;;;;;;4999824;28;20196;-69
2023/10/06 04:20:58;;;;;;;7.60;4.07;;;7.90;99.90;;;;;;5011217;28;20188;-69
2023/10/06 04:23:24;;;;;;;7.93;3.93;;;7.90;99.90;;;;;;5011267;28;20201;-69
2023/10/06 04:25:54;;;;;;;5.93;3.53;;;8.00;99.90;;;;;;4999640;28;20185;-69
2023/10/06 04:28:25;;;;;;;11.70;3.43;;;7.90;99.90;;;;;;4991542;28;20181;-69
2023/10/06 04:30:50;;;;;;;6.30;3.70;;;7.90;99.90;;;;;;4994470;28;20175;-69
2023/10/06 04:33:18;;;;;;;7.10;3.80;;;7.80;99.90;;;;;;5004173;28;20201;-69
2023/10/06 04:38:30;;;;;;;6.17;3.27;;;7.80;99.90;;;;;;5001310;28;20192;-69
2023/10/06 04:40:56;;;;;;;6.83;3.57;;;7.80;99.90;;;;;;4992006;28;20191;-68
2023/10/06 04:43:22;;;;;;;7.87;3.50;;;7.80;99.90;;;;;;4999341;28;20208;-69
2023/10/06 04:45:49;;;;;;;8.57;3.33;;;7.70;99.90;;;;;;4982978;28;20221;-69
2023/10/06 04:48:15;;;;;;;6.47;3.70;;;7.70;99.90;;;;;;5005974;28;20180;-69
2023/10/06 04:50:45;;;;;;;6.43;3.73;;;7.70;99.90;;;;;;5002095;28;20555;-68
2023/10/06 04:53:11;;;;;;;10.37;3.73;;;7.70;99.90;;;;;;5002542;28;20238;-69
2023/10/06 04:55:39;;;;;;;10.73;3.80;;;7.60;99.90;;;;;;5008799;28;20565;-69
2023/10/06 04:58:07;;;;;;;8.63;3.90;;;7.60;99.90;;;;;;4991821;28;20259;-69
2023/10/06 05:00:33;;;;;;;11.50;3.77;;;7.70;99.90;;;;;;5007404;28;20208;-69
2023/10/06 05:02:59;;;;;;;7.80;3.80;;;7.60;99.90;;;;;;4997760;28;20227;-69
2023/10/06 05:05:26;;;;;;;6.43;3.50;;;7.60;99.90;;;;;;4999629;28;20189;-69
2023/10/06 05:07:53;;;;;;;9.13;3.53;;;7.50;99.90;;;;;;4991325;28;20296;-69
2023/10/06 05:10:21;;;;;;;7.00;3.47;;;7.60;99.90;;;;;;5005844;28;20230;-69
2023/10/06 05:12:50;;;;;;;8.53;3.23;;;7.60;99.90;;;;;;4975241;28;20293;-69
2023/10/06 05:15:50;;;;;;;8.40;3.43;;;7.60;99.90;;;;;;5005971;28;20187;-70
2023/10/06 05:18:13;;;;;;;7.97;3.70;;;7.60;99.90;;;;;;5003458;28;20578;-69
2023/10/06 05:20:39;;;;;;;8.27;3.13;;;7.60;99.90;;;;;;4983984;28;20280;-69
2023/10/06 05:23:07;;;;;;;7.37;3.60;;;7.60;99.90;;;;;;5000033;28;20705;-69
2023/10/06 05:25:33;;;;;;;5.70;3.40;;;7.60;99.90;;;;;;4987743;28;20173;-69
2023/10/06 05:28:00;;;;;;;6.90;3.37;;;7.60;99.90;;;;;;4996593;28;20184;-69
2023/10/06 05:30:29;;;;;;;7.10;3.70;;;7.60;99.90;;;;;;5010102;28;20184;-69
2023/10/06 05:32:59;;;;;;;7.63;3.50;;;7.50;99.90;;;;;;5010239;28;20254;-68
2023/10/06 05:35:35;;;;;;;5.73;3.03;;;7.60;99.90;;;;;;5010546;28;20212;-68
2023/10/06 05:38:13;;;;;;;10.33;3.37;;;7.60;99.90;;;;;;4986206;28;20200;-68
2023/10/06 05:40:44;;;;;;;6.50;2.90;;;7.60;99.90;;;;;;4995087;28;20678;-68
2023/10/06 05:43:11;;;;;;;3.87;2.60;;;7.50;99.90;;;;;;4991190;28;20208;-71
2023/10/06 05:45:41;;;;;;;7.83;3.20;;;7.50;99.90;;;;;;5000303;28;20682;-68
2023/10/06 05:48:15;;;;;;;5.47;3.10;;;7.50;99.90;;;;;;4989177;28;20601;-68
2023/10/06 05:50:42;;;;;;;9.03;4.73;;;7.60;99.90;;;;;;4987045;28;20208;-68
2023/10/06 05:53:19;;;;;;;6.90;3.73;;;7.60;99.90;;;;;;4986568;28;20684;-71
2023/10/06 05:55:49;;;;;;;8.47;3.67;;;7.70;99.90;;;;;;4988874;28;20216;-70
2023/10/06 05:58:19;;;;;;;11.30;3.47;;;7.70;99.90;;;;;;4996573;28;20211;-69
2023/10/06 06:00:52;;;;;;;7.67;3.73;;;7.70;99.90;;;;;;4998459;28;20225;-70
2023/10/06 06:03:20;;;;;;;8.60;3.30;;;7.80;99.90;;;;;;4994967;28;20295;-71
2023/10/06 06:06:02;;;;;;;6.73;3.40;;;7.80;99.90;;;;;;4982137;28;20656;-71
2023/10/06 06:08:30;;;;;;;7.50;3.77;;;7.80;99.90;;;;;;4998167;28;20201;-68
2023/10/06 06:10:56;;;;;;;7.77;3.47;;;7.80;99.90;;;;;;5005290;28;20177;-68
2023/10/06 06:13:21;;;;;;;5.93;3.30;;;7.90;99.90;;;;;;4982127;28;20280;-69
2023/10/06 06:15:48;;;;;;;10.63;3.67;;;7.80;99.90;;;;;;5008051;28;20223;-68
2023/10/06 06:18:14;;;;;;;11.40;3.90;;;7.80;99.90;;;;;;5012607;28;20176;-69
2023/10/06 06:20:41;;;;;;;8.73;5.00;;;7.80;99.90;;;;;;4979883;28;20202;-68
2023/10/06 06:23:09;;;;;;;10.10;5.10;;;7.80;99.90;;;;;;5012290;28;20201;-69
2023/10/06 06:25:39;;;;;;;9.30;4.57;;;7.90;99.90;;;;;;5003321;28;20239;-69
2023/10/06 06:28:07;;;;;;;8.13;4.30;;;8.00;99.90;;;;;;5000887;28;20181;-68
2023/10/06 06:30:37;;;;;;;5.90;3.60;;;8.10;99.90;;;;;;4991319;28;20265;-68
2023/10/06 06:33:04;;;;;;;9.80;3.70;;;7.90;99.90;;;;;;4999034;28;20622;-69
2023/10/06 06:35:30;;;;;;;6.10;3.70;;;8.00;99.90;;;;;;5003688;28;20535;-68
2023/10/06 06:38:01;;;;;;;6.67;4.00;;;8.00;99.90;;;;;;5000821;28;20191;-69
2023/10/06 06:40:30;;;;;;;8.97;4.00;;;8.10;99.90;;;;;;4999973;28;20276;-68
2023/10/06 06:42:55;;;;;;;7.13;3.83;;;8.20;99.90;;;;;;4992807;28;20207;-69
2023/10/06 06:45:24;;;;;;;15.77;4.27;;;8.20;99.90;;;;;;5022974;28;20255;-69
2023/10/06 06:47:50;;;;;;;42.37;5.73;;;8.30;99.90;;;;;;5003654;28;20276;-69
2023/10/06 06:50:17;;;;;;;22.17;4.67;;;8.30;99.90;;;;;;5011582;28;20534;-69
2023/10/06 06:52:47;;;;;;;17.57;5.67;;;8.30;99.90;;;;;;5010544;28;20184;-69
2023/10/06 06:55:13;;;;;;;9.27;4.43;;;8.40;99.90;;;;;;4997882;28;20187;-69
2023/10/06 06:57:49;;;;;;;19.33;5.47;;;8.40;99.90;;;;;;5000784;28;20575;-69
2023/10/06 07:00:24;;;;;;;44.30;5.70;;;8.40;99.90;;;;;;4998189;28;20424;-69
2023/10/06 07:02:51;;;;;;;9.33;6.03;;;8.40;99.90;;;;;;5018118;28;20238;-69
2023/10/06 07:05:21;;;;;;;11.87;7.50;;;8.40;99.90;;;;;;5011767;28;20188;-69
2023/10/06 07:07:50;;;;;;;36.30;6.03;;;8.50;99.90;;;;;;5011766;28;20200;-67
2023/10/06 07:10:19;;;;;;;13.90;6.07;;;8.50;99.90;;;;;;5011082;28;20215;-67
2023/10/06 07:12:47;;;;;;;22.20;6.63;;;8.60;99.90;;;;;;5011205;28;20193;-67
2023/10/06 07:15:17;;;;;;;35.07;7.30;;;8.60;99.90;;;;;;5011409;28;20545;-68
2023/10/06 07:17:56;;;;;;;22.63;5.87;;;8.60;99.90;;;;;;5011354;28;20223;-68
2023/10/06 07:20:27;;;;;;;14.47;6.40;;;8.60;99.90;;;;;;5003427;28;20286;-68
2023/10/06 07:22:55;;;;;;;16.20;6.47;;;8.60;99.90;;;;;;4992122;28;20204;-69
2023/10/06 07:25:26;;;;;;;20.77;6.47;;;8.70;99.90;;;;;;4999856;28;20276;-68
2023/10/06 07:27:55;;;;;;;26.00;7.50;;;8.80;99.90;;;;;;4993718;28;20291;-68
2023/10/06 07:30:22;;;;;;;18.40;6.90;;;8.90;99.90;;;;;;5003466;28;20209;-68
2023/10/06 07:32:50;;;;;;;12.53;5.87;;;9.00;99.90;;;;;;5002401;28;20588;-67
2023/10/06 07:35:25;;;;;;;8.60;5.03;;;8.90;99.90;;;;;;5003091;28;20191;-67
2023/10/06 07:37:52;;;;;;;13.83;5.83;;;9.00;99.90;;;;;;5011038;28;20191;-68
2023/10/06 07:40:21;;;;;;;16.13;5.60;;;9.00;99.90;;;;;;5003725;28;20660;-67
2023/10/06 07:42:49;;;;;;;15.10;5.77;;;9.20;99.90;;;;;;4999328;28;20695;-68
2023/10/06 07:45:15;;;;;;;13.87;6.07;;;9.20;99.90;;;;;;5005802;28;20184;-68
2023/10/06 07:47:42;;;;;;;12.87;6.00;;;9.20;99.90;;;;;;5002712;28;20651;-68
2023/10/06 07:50:09;;;;;;;11.17;6.27;;;9.20;99.90;;;;;;5005271;28;20224;-68
2023/10/06 07:52:36;;;;;;;14.87;8.17;;;9.40;99.90;;;;;;5008159;28;20192;-68
2023/10/06 07:55:06;;;;;;;12.73;6.50;;;9.60;99.90;;;;;;5002717;28;20295;-68
2023/10/06 07:57:32;;;;;;;9.30;5.80;;;9.90;99.90;;;;;;5001987;28;20579;-68
2023/10/06 08:00:06;;;;;;;9.83;5.50;;;10.00;99.90;;;;;;4982230;28;20212;-68
2023/10/06 08:02:39;;;;;;;13.17;6.43;;;10.10;99.90;;;;;;4991371;28;20196;-67
2023/10/06 08:05:06;;;;;;;13.37;6.53;;;10.30;99.90;;;;;;5010676;28;20703;-68
2023/10/06 08:07:33;;;;;;;15.50;6.33;;;10.30;99.90;;;;;;5009939;28;20180;-68
2023/10/06 08:09:59;;;;;;;12.43;6.77;;;10.50;99.90;;;;;;5002679;28;20192;-68
2023/10/06 08:12:27;;;;;;;14.17;6.70;;;10.70;99.90;;;;;;5010572;28;20212;-68
2023/10/06 08:14:54;;;;;;;16.60;7.40;;;10.90;99.90;;;;;;4988485;28;20288;-68
2023/10/06 08:17:20;;;;;;;16.53;7.60;;;11.20;99.90;;;;;;4984855;28;20192;-68
2023/10/06 08:19:46;;;;;;;12.17;6.97;;;11.60;99.90;;;;;;4997844;28;20578;-67
2023/10/06 08:22:13;;;;;;;11.57;5.10;;;11.90;99.90;;;;;;5001580;28;20184;-68
2023/10/06 08:24:38;;;;;;;22.40;5.80;;;12.10;99.90;;;;;;5000839;28;20205;-67
2023/10/06 08:27:06;;;;;;;9.07;4.77;;;12.10;99.90;;;;;;5005213;28;20212;-68
2023/10/06 08:29:33;;;;;;;10.37;5.50;;;12.30;99.90;;;;;;4998190;28;20279;-68
2023/10/06 08:31:59;;;;;;;14.03;6.33;;;12.30;99.90;;;;;;5006123;28;20185;-68
2023/10/06 08:34:25;;;;;;;17.43;5.80;;;12.40;99.90;;;;;;4998086;28;20667;-68
2023/10/06 08:36:51;;;;;;;13.53;5.70;;;12.60;99.90;;;;;;4999002;28;20249;-68
2023/10/06 08:39:17;;;;;;;13.70;5.90;;;12.70;99.90;;;;;;5004240;28;20634;-68
2023/10/06 08:41:45;;;;;;;9.00;4.87;;;12.80;99.90;;;;;;5009911;28;20180;-67
2023/10/06 08:44:14;;;;;;;7.60;4.63;;;13.10;99.90;;;;;;5001680;28;20192;-67
2023/10/06 08:46:44;;;;;;;16.40;5.27;;;13.50;99.90;;;;;;5009752;28;20184;-68
2023/10/06 08:49:11;;;;;;;10.50;4.60;;;13.90;99.90;;;;;;5001375;28;20184;-69
2023/10/06 08:51:38;;;;;;;9.03;4.40;;;14.40;99.90;;;;;;5000593;28;20634;-68
2023/10/06 08:54:07;;;;;;;8.87;4.33;;;14.50;99.90;;;;;;5003046;28;20698;-68
2023/10/06 08:56:34;;;;;;;13.43;5.50;;;14.70;99.90;;;;;;5009599;28;20656;-68
2023/10/06 08:59:00;;;;;;;10.50;4.77;;;15.20;99.90;;;;;;5005126;28;20622;-68
2023/10/06 09:01:29;;;;;;;7.80;3.90;;;15.50;99.90;;;;;;4998058;28;20231;-68
2023/10/06 09:04:03;;;;;;;8.00;3.90;;;15.80;99.90;;;;;;5001682;28;20244;-68
2023/10/06 09:06:29;;;;;;;10.87;4.63;;;15.90;99.90;;;;;;5009447;28;20231;-68
2023/10/06 09:08:55;;;;;;;13.00;5.33;;;15.90;99.90;;;;;;4993345;28;20192;-68
2023/10/06 09:11:40;;;;;;;8.17;4.20;;;15.90;99.90;;;;;;5009536;28;20184;-68
2023/10/06 09:14:07;;;;;;;19.67;5.03;;;15.90;99.90;;;;;;4991639;28;20656;-68
2023/10/06 09:16:49;;;;;;;10.80;4.50;;;16.00;99.90;;;;;;4996408;28;20216;-67
2023/10/06 09:19:15;;;;;;;11.33;4.10;;;15.80;99.90;;;;;;5003513;28;20210;-67
2023/10/06 09:22:00;;;;;;;12.53;4.30;;;15.70;99.90;;;;;;5024436;28;20559;-67
2023/10/06 09:24:27;;;;;;;9.53;4.30;;;15.90;99.90;;;;;;5001411;28;20258;-66
2023/10/06 09:26:53;;;;;;;8.30;4.00;;;16.00;99.90;;;;;;5001479;28;20249;-67
2023/10/06 09:29:31;;;;;;;13.47;4.00;;;16.50;99.90;;;;;;5008719;28;20184;-68
2023/10/06 09:31:57;;;;;;;9.20;3.60;;;16.80;99.90;;;;;;4994134;28;20210;-67
2023/10/06 09:34:27;;;;;;;8.70;3.80;;;17.20;99.90;;;;;;5001865;28;20205;-68
2023/10/06 09:36:53;;;;;;;10.13;3.97;;;17.30;99.90;;;;;;5008918;28;20556;-67
2023/10/06 09:39:32;;;;;;;8.90;3.63;;;17.40;99.90;;;;;;4986051;28;20208;-68
2023/10/06 09:42:05;;;;;;;10.80;4.27;;;17.20;99.90;;;;;;4994277;28;20322;-67
2023/10/06 09:44:34;;;;;;;7.80;3.77;;;17.20;99.90;;;;;;5001007;28;20283;-67
2023/10/06 09:47:01;;;;;;;12.07;4.60;;;17.00;99.90;;;;;;5001119;28;20510;-68
2023/10/06 09:49:28;;;;;;;8.73;4.10;;;16.90;99.90;;;;;;5001054;28;20622;-67
2023/10/06 09:51:59;;;;;;;13.33;4.63;;;17.20;99.90;;;;;;4992743;28;20193;-67
2023/10/06 09:54:25;;;;;;;11.53;4.67;;;17.60;99.90;;;;;;5001782;28;20238;-67
2023/10/06 09:56:55;;;;;;;12.17;4.20;;;17.90;99.90;;;;;;5012481;28;20715;-67
2023/10/06 09:59:22;;;;;;;10.97;4.20;;;18.30;99.90;;;;;;4998658;28;20237;-68
2023/10/06 10:01:49;;;;;;;10.37;4.53;;;18.70;99.90;;;;;;5002683;28;20212;-66
2023/10/06 10:04:15;;;;;;;16.73;4.73;;;19.10;99.90;;;;;;5006455;28;20236;-65
2023/10/06 10:06:45;;;;;;;17.80;7.00;;;19.50;99.90;;;;;;4994798;28;20212;-67
2023/10/06 10:09:16;;;;;;;11.87;6.07;;;20.00;99.90;;;;;;5004381;28;20286;-67
2023/10/06 10:11:50;;;;;;;10.73;3.73;;;20.40;99.90;;;;;;5004690;28;21017;-67
2023/10/06 10:14:44;;;;;;;9.53;3.80;;;20.70;99.90;;;;;;5004618;28;20290;-67
2023/10/06 10:17:37;;;;;;;8.70;3.10;;;20.70;99.90;;;;;;4987176;28;20177;-67
2023/10/06 10:20:09;;;;;;;9.07;3.77;;;20.90;99.90;;;;;;5005031;28;20242;-69
2023/10/06 10:22:34;;;;;;;12.50;3.40;;;21.40;99.90;;;;;;5004155;28;20608;-69
2023/10/06 10:25:01;;;;;;;12.60;4.33;;;21.60;99.90;;;;;;5004613;28;20177;-68
2023/10/06 10:27:27;;;;;;;10.90;2.80;;;22.00;99.90;;;;;;5012634;28;20185;-68
2023/10/06 10:29:52;;;;;;;12.47;2.83;;;22.40;99.90;;;;;;4997628;28;20198;-69
2023/10/06 10:32:22;;;;;;;7.07;2.10;;;22.50;99.90;;;;;;5002649;28;20247;-68
2023/10/06 10:35:16;;;;;;;6.37;1.90;;;22.40;99.90;;;;;;5004298;28;20205;-66
2023/10/06 10:37:55;;;;;;;8.80;2.10;;;22.20;99.90;;;;;;5011186;28;20660;-66
2023/10/06 10:40:26;;;;;;;6.63;2.20;;;22.20;99.90;;;;;;5009395;28;20201;-67
2023/10/06 10:43:05;;;;;;;7.57;2.50;;;21.80;99.90;;;;;;4984545;28;20352;-66
2023/10/06 10:45:43;;;;;;;6.07;2.20;;;21.60;99.90;;;;;;5000413;28;20716;-66
2023/10/06 10:48:17;;;;;;;7.40;2.30;;;21.40;99.90;;;;;;5006864;28;20205;-66
2023/10/06 10:51:05;;;;;;;7.10;2.00;;;21.40;99.90;;;;;;4991651;28;20181;-65
2023/10/06 10:53:34;;;;;;;4.93;1.83;;;21.20;99.90;;;;;;4984236;28;20202;-66
2023/10/06 10:56:01;;;;;;;6.03;2.00;;;21.00;99.90;;;;;;5004423;28;20671;-66
2023/10/06 10:58:42;;;;;;;5.23;1.93;;;20.90;99.90;;;;;;5011699;28;20186;-66
2023/10/06 11:01:27;;;;;;;9.67;2.27;;;20.80;99.90;;;;;;4998715;28;20682;-66
2023/10/06 11:04:21;;;;;;;8.00;2.27;;;20.70;99.90;;;;;;5011411;28;20212;-67
2023/10/06 11:06:48;;;;;;;11.60;2.33;;;20.60;99.90;;;;;;4991042;28;20193;-66
2023/10/06 11:09:40;;;;;;;4.87;2.07;;;20.50;99.90;;;;;;5015548;28;20184;-65
2023/10/06 11:12:18;;;;;;;6.97;2.03;;;20.40;99.90;;;;;;4993586;28;20260;-65
2023/10/06 11:14:45;;;;;;;7.17;2.30;;;20.60;99.90;;;;;;4994260;28;20643;-65
2023/10/06 11:17:12;;;;;;;7.37;2.63;;;20.70;99.90;;;;;;5006057;28;20546;-65
2023/10/06 11:19:39;;;;;;;9.93;2.50;;;21.10;99.90;;;;;;5000262;28;20219;-66
2023/10/06 11:22:19;;;;;;;10.90;2.20;;;21.10;99.90;;;;;;5006635;28;20212;-67
2023/10/06 11:24:45;;;;;;;6.00;1.70;;;21.50;99.90;;;;;;5001334;28;20203;-71
2023/10/06 11:27:22;;;;;;;11.53;2.33;;;22.00;99.90;;;;;;5002972;28;20176;-69
2023/10/06 11:29:52;;;;;;;6.30;1.93;;;22.30;99.90;;;;;;4982418;28;20335;-68
2023/10/06 11:32:18;;;;;;;7.27;2.27;;;22.30;99.90;;;;;;4986272;28;20196;-69
2023/10/06 11:34:45;;;;;;;7.57;2.10;;;22.30;99.90;;;;;;4999739;28;20217;-68
2023/10/06 11:37:12;;;;;;;5.93;2.10;;;22.20;99.90;;;;;;5007667;28;20188;-68
2023/10/06 11:39:38;;;;;;;8.67;2.10;;;22.10;99.90;;;;;;5008638;28;20290;-69
2023/10/06 11:42:33;;;;;;;7.17;1.90;;;22.10;99.90;;;;;;4991842;28;20181;-69
2023/10/06 11:45:00;;;;;;;7.53;2.20;;;22.30;99.90;;;;;;4987737;28;20216;-69
2023/10/06 11:47:26;;;;;;;7.30;2.30;;;22.20;99.90;;;;;;4995553;28;20184;-68
2023/10/06 11:49:59;;;;;;;6.37;2.07;;;22.40;99.90;;;;;;5007277;28;20181;-68
2023/10/06 11:52:27;;;;;;;6.00;2.20;;;22.60;99.90;;;;;;5000831;28;20186;-69
2023/10/06 11:54:53;;;;;;;6.67;2.20;;;22.80;99.90;;;;;;5002012;28;20434;-69
2023/10/06 11:57:20;;;;;;;10.87;2.30;;;22.80;99.90;;;;;;4989752;28;20297;-66
2023/10/06 11:59:49;;;;;;;10.63;2.63;;;23.00;99.90;;;;;;5007057;28;20294;-67
2023/10/06 12:02:15;;;;;;;5.10;2.00;;;22.80;99.90;;;;;;4994640;28;20182;-68
2023/10/06 12:04:41;;;;;;;9.53;2.90;;;22.70;99.90;;;;;;5010205;28;20220;-69
2023/10/06 12:07:08;;;;;;;12.17;2.67;;;22.90;99.90;;;;;;4994577;28;20181;-69
2023/10/06 12:09:35;;;;;;;9.30;2.60;;;23.00;99.90;;;;;;5009793;28;20235;-70
2023/10/06 12:12:01;;;;;;;11.97;2.37;;;23.10;99.90;;;;;;5010394;28;20261;-69
2023/10/06 12:14:27;;;;;;;7.63;2.07;;;23.00;99.90;;;;;;4987035;28;20289;-70
2023/10/06 12:16:56;;;;;;;8.53;2.27;;;23.00;99.90;;;;;;4998376;28;20190;-69
2023/10/06 12:19:23;;;;;;;133.07;52.07;;;22.90;99.90;;;;;;5004947;28;20259;-70
2023/10/06 12:21:52;;;;;;;5.20;2.30;;;22.90;99.90;;;;;;5010159;28;20195;-72
2023/10/06 12:24:18;;;;;;;8.90;2.70;;;23.10;99.90;;;;;;5004063;28;20198;-69
2023/10/06 12:26:46;;;;;;;6.07;1.93;;;23.10;99.90;;;;;;4990777;28;20210;-71
2023/10/06 12:29:16;;;;;;;6.53;1.90;;;23.20;99.90;;;;;;4987472;28;20189;-68
2023/10/06 12:31:44;;;;;;;8.30;2.10;;;23.20;99.90;;;;;;4993379;28;20613;-68
2023/10/06 12:34:15;;;;;;;6.30;2.30;;;23.00;99.90;;;;;;5005128;28;20305;-68
2023/10/06 12:36:51;;;;;;;6.70;2.60;;;23.10;99.90;;;;;;5012387;28;20188;-67
2023/10/06 12:39:33;;;;;;;5.50;2.00;;;23.20;99.90;;;;;;4989956;28;20209;-68
2023/10/06 12:41:59;;;;;;;7.10;2.10;;;23.20;99.90;;;;;;4990800;28;20317;-69
2023/10/06 12:44:27;;;;;;;10.30;1.87;;;23.40;99.90;;;;;;4990323;28;20728;-67
2023/10/06 12:46:56;;;;;;;6.57;1.97;;;23.60;99.90;;;;;;5006769;28;20581;-68
2023/10/06 12:49:23;;;;;;;6.67;2.27;;;23.70;99.90;;;;;;4989977;28;20185;-67
2023/10/06 12:51:49;;;;;;;4.97;1.80;;;23.70;99.90;;;;;;4996121;28;20189;-67
2023/10/06 12:54:15;;;;;;;6.60;2.30;;;23.60;99.90;;;;;;4986840;28;20449;-67
2023/10/06 12:56:44;;;;;;;8.20;2.30;;;23.40;99.90;;;;;;4995963;28;20233;-68
2023/10/06 12:59:11;;;;;;;7.53;2.40;;;23.20;99.90;;;;;;5009168;28;20256;-69
2023/10/06 13:01:37;;;;;;;7.60;2.23;;;23.20;99.90;;;;;;4992600;28;20215;-68
2023/10/06 13:04:03;;;;;;;3.67;1.70;;;23.10;99.90;;;;;;5002269;28;20271;-68
2023/10/06 13:06:30;;;;;;;5.50;2.20;;;23.10;99.90;;;;;;5001852;28;20174;-68
2023/10/06 13:08:55;;;;;;;8.30;2.40;;;23.10;99.90;;;;;;5008686;28;20208;-69
2023/10/06 13:11:23;;;;;;;5.27;2.43;;;23.00;99.90;;;;;;5003113;28;20241;-69
2023/10/06 13:13:49;;;;;;;5.47;2.17;;;23.10;99.90;;;;;;4999217;28;20688;-69
2023/10/06 13:16:17;;;;;;;6.00;2.10;;;23.00;99.90;;;;;;4995214;28;20197;-68